< Typhoon 199414 1994 Season Typhoon 199416 >
Typhoon 199415 (LI)
General InformationTrack Information on Google MapsDetailed Wind InformationList of All Images || Disaster Info.ResourceGoogle EarthGE AnimationAtom FeedGeoJSON
Detalied Best Track (Time Zone = UTC)
Year Month Day Hour Lat. Long. Pressure (hPa) Wind (kt) Class Image Chart
1994 8 12 18 12.6 180.5 992 45 7 Image Chart
1994 8 13 00 13.0 179.1 994 40 3 Image Chart
1994 8 13 06 13.3 178.2 996 40 3 Image Chart
1994 8 13 12 13.7 177.3 996 40 3 Image Chart
1994 8 13 18 14.0 176.4 996 40 3 Image Chart
1994 8 14 00 14.3 175.4 996 40 3 Image Chart
1994 8 14 06 14.8 174.2 998 35 3 Image Chart
1994 8 14 12 15.1 173.4 1000 0 2 Image Chart
1994 8 14 18 15.5 172.6 1002 0 2 Image Chart
1994 8 15 00 16.0 171.9 1004 0 2 Image Chart
1994 8 15 06 16.8 171.2 1004 0 2 Image Chart
1994 8 15 12 17.6 170.7 1004 0 2 Image Chart
1994 8 15 18 18.0 170.5 1004 0 2 Image Chart
1994 8 16 00 18.3 170.4 1004 0 2 Image Chart
1994 8 16 06 18.5 170.3 1004 0 2 Image Chart
1994 8 16 12 18.2 170.0 1004 0 2 Image Chart
1994 8 16 18 18.0 169.5 1004 0 2 Image Chart
1994 8 17 00 18.1 169.0 1004 0 2 Image Chart
1994 8 17 06 18.1 169.2 1004 0 2 Image Chart
1994 8 17 12 18.0 169.6 1004 0 2 Image Chart
1994 8 17 18 18.0 170.1 1004 0 2 Image Chart
Japan Meteorological Agency Best Track Data | Correction Date : 2013-11-22
< Typhoon 199414 1994 Season Typhoon 199416 >

Help